sensor_id;sensor_type;location;lat;lon;timestamp;P1;durP1;ratioP1;P2;durP2;ratioP2
29280;SDS011;25048;49.590;11.026;2023-02-23T00:01:25;28.37;;;26.27;;
29280;SDS011;25048;49.590;11.026;2023-02-23T00:03:55;34.00;;;31.80;;
29280;SDS011;25048;49.590;11.026;2023-02-23T00:06:25;28.73;;;26.87;;
29280;SDS011;25048;49.590;11.026;2023-02-23T00:08:53;40.93;;;38.43;;
29280;SDS011;25048;49.590;11.026;2023-02-23T00:11:23;38.90;;;36.30;;
29280;SDS011;25048;49.590;11.026;2023-02-23T00:13:52;46.97;;;43.67;;
29280;SDS011;25048;49.590;11.026;2023-02-23T00:16:22;70.97;;;66.40;;
29280;SDS011;25048;49.590;11.026;2023-02-23T00:18:55;64.90;;;60.70;;
29280;SDS011;25048;49.590;11.026;2023-02-23T00:21:26;84.67;;;79.17;;
29280;SDS011;25048;49.590;11.026;2023-02-23T00:23:56;63.97;;;60.00;;
29280;SDS011;25048;49.590;11.026;2023-02-23T00:26:26;62.13;;;58.10;;
29280;SDS011;25048;49.590;11.026;2023-02-23T00:28:57;58.73;;;54.63;;
29280;SDS011;25048;49.590;11.026;2023-02-23T00:31:25;61.43;;;57.40;;
29280;SDS011;25048;49.590;11.026;2023-02-23T00:34:00;45.90;;;42.87;;
29280;SDS011;25048;49.590;11.026;2023-02-23T00:36:27;50.47;;;47.00;;
29280;SDS011;25048;49.590;11.026;2023-02-23T00:38:56;60.83;;;56.53;;
29280;SDS011;25048;49.590;11.026;2023-02-23T00:41:26;52.77;;;49.70;;
29280;SDS011;25048;49.590;11.026;2023-02-23T00:43:55;62.87;;;58.77;;
29280;SDS011;25048;49.590;11.026;2023-02-23T00:46:24;52.60;;;49.50;;
29280;SDS011;25048;49.590;11.026;2023-02-23T00:48:54;38.97;;;36.53;;
29280;SDS011;25048;49.590;11.026;2023-02-23T00:51:24;55.97;;;52.20;;
29280;SDS011;25048;49.590;11.026;2023-02-23T00:53:55;52.90;;;49.50;;
29280;SDS011;25048;49.590;11.026;2023-02-23T00:56:24;59.70;;;56.03;;
29280;SDS011;25048;49.590;11.026;2023-02-23T00:58:53;53.63;;;49.73;;
29280;SDS011;25048;49.590;11.026;2023-02-23T01:01:21;48.77;;;45.60;;
29280;SDS011;25048;49.590;11.026;2023-02-23T01:03:49;60.60;;;56.80;;
29280;SDS011;25048;49.590;11.026;2023-02-23T01:06:19;60.03;;;56.03;;
29280;SDS011;25048;49.590;11.026;2023-02-23T01:08:48;52.37;;;49.20;;
29280;SDS011;25048;49.590;11.026;2023-02-23T01:11:19;37.70;;;35.20;;
29280;SDS011;25048;49.590;11.026;2023-02-23T01:13:49;39.77;;;36.83;;
29280;SDS011;25048;49.590;11.026;2023-02-23T01:16:19;50.60;;;47.23;;
29280;SDS011;25048;49.590;11.026;2023-02-23T01:18:49;63.30;;;59.57;;
29280;SDS011;25048;49.590;11.026;2023-02-23T01:23:49;58.33;;;54.77;;
29280;SDS011;25048;49.590;11.026;2023-02-23T01:26:18;62.97;;;58.93;;
29280;SDS011;25048;49.590;11.026;2023-02-23T01:29:00;58.07;;;54.50;;
29280;SDS011;25048;49.590;11.026;2023-02-23T01:31:30;63.17;;;59.20;;
29280;SDS011;25048;49.590;11.026;2023-02-23T01:33:58;77.67;;;73.10;;
29280;SDS011;25048;49.590;11.026;2023-02-23T01:36:28;64.07;;;60.13;;
29280;SDS011;25048;49.590;11.026;2023-02-23T01:38:57;64.23;;;60.20;;
29280;SDS011;25048;49.590;11.026;2023-02-23T01:41:25;87.67;;;82.67;;
29280;SDS011;25048;49.590;11.026;2023-02-23T01:43:57;68.47;;;64.47;;
29280;SDS011;25048;49.590;11.026;2023-02-23T01:46:32;78.33;;;73.67;;
29280;SDS011;25048;49.590;11.026;2023-02-23T01:49:10;95.30;;;89.67;;
29280;SDS011;25048;49.590;11.026;2023-02-23T01:51:39;78.20;;;73.63;;
29280;SDS011;25048;49.590;11.026;2023-02-23T01:54:15;81.27;;;76.37;;
29280;SDS011;25048;49.590;11.026;2023-02-23T01:56:44;99.07;;;93.47;;
29280;SDS011;25048;49.590;11.026;2023-02-23T01:59:42;80.20;;;75.27;;
29280;SDS011;25048;49.590;11.026;2023-02-23T02:01:59;74.23;;;69.67;;
29280;SDS011;25048;49.590;11.026;2023-02-23T02:04:29;95.93;;;90.17;;
29280;SDS011;25048;49.590;11.026;2023-02-23T02:07:01;96.00;;;90.50;;
29280;SDS011;25048;49.590;11.026;2023-02-23T02:09:30;95.27;;;89.47;;
29280;SDS011;25048;49.590;11.026;2023-02-23T02:12:00;80.77;;;75.93;;
29280;SDS011;25048;49.590;11.026;2023-02-23T02:14:29;40.40;;;37.93;;
29280;SDS011;25048;49.590;11.026;2023-02-23T02:25:54;155.60;;;146.43;;
29280;SDS011;25048;49.590;11.026;2023-02-23T02:28:40;143.47;;;135.23;;
29280;SDS011;25048;49.590;11.026;2023-02-23T02:39:43;196.67;;;184.40;;
29280;SDS011;25048;49.590;11.026;2023-02-23T02:44:58;187.77;;;176.07;;
29280;SDS011;25048;49.590;11.026;2023-02-23T02:47:44;195.07;;;182.77;;
29280;SDS011;25048;49.590;11.026;2023-02-23T02:50:18;177.40;;;166.77;;
29280;SDS011;25048;49.590;11.026;2023-02-23T02:52:49;170.40;;;159.80;;
29280;SDS011;25048;49.590;11.026;2023-02-23T02:55:25;180.87;;;169.83;;
29280;SDS011;25048;49.590;11.026;2023-02-23T02:57:55;166.17;;;155.73;;
29280;SDS011;25048;49.590;11.026;2023-02-23T03:00:30;153.30;;;143.93;;
29280;SDS011;25048;49.590;11.026;2023-02-23T03:06:33;199.53;;;186.80;;
29280;SDS011;25048;49.590;11.026;2023-02-23T03:09:26;175.20;;;164.00;;
29280;SDS011;25048;49.590;11.026;2023-02-23T03:12:26;149.90;;;140.83;;
29280;SDS011;25048;49.590;11.026;2023-02-23T03:15:34;245.33;;;228.63;;
29280;SDS011;25048;49.590;11.026;2023-02-23T03:18:45;241.67;;;225.10;;
29280;SDS011;25048;49.590;11.026;2023-02-23T03:21:36;248.57;;;231.03;;
29280;SDS011;25048;49.590;11.026;2023-02-23T03:24:45;259.27;;;240.83;;
29280;SDS011;25048;49.590;11.026;2023-02-23T03:27:35;272.07;;;252.23;;
29280;SDS011;25048;49.590;11.026;2023-02-23T03:30:25;265.50;;;246.53;;
29280;SDS011;25048;49.590;11.026;2023-02-23T03:33:22;274.67;;;254.47;;
29280;SDS011;25048;49.590;11.026;2023-02-23T03:36:08;246.53;;;228.63;;
29280;SDS011;25048;49.590;11.026;2023-02-23T03:39:16;239.83;;;222.73;;
29280;SDS011;25048;49.590;11.026;2023-02-23T03:42:06;252.87;;;234.53;;
29280;SDS011;25048;49.590;11.026;2023-02-23T03:44:53;193.17;;;180.20;;
29280;SDS011;25048;49.590;11.026;2023-02-23T03:47:40;118.53;;;111.00;;
29280;SDS011;25048;49.590;11.026;2023-02-23T03:50:38;123.03;;;115.50;;
29280;SDS011;25048;49.590;11.026;2023-02-23T03:53:30;117.83;;;110.53;;
29280;SDS011;25048;49.590;11.026;2023-02-23T03:56:16;155.97;;;146.33;;
29280;SDS011;25048;49.590;11.026;2023-02-23T03:59:04;143.93;;;134.60;;
29280;SDS011;25048;49.590;11.026;2023-02-23T04:01:51;138.83;;;130.10;;
29280;SDS011;25048;49.590;11.026;2023-02-23T04:04:39;146.07;;;136.60;;
29280;SDS011;25048;49.590;11.026;2023-02-23T04:07:26;125.40;;;117.20;;
29280;SDS011;25048;49.590;11.026;2023-02-23T04:10:12;140.40;;;131.30;;
29280;SDS011;25048;49.590;11.026;2023-02-23T04:12:59;136.23;;;127.53;;
29280;SDS011;25048;49.590;11.026;2023-02-23T04:15:46;120.53;;;112.80;;
29280;SDS011;25048;49.590;11.026;2023-02-23T04:18:20;137.27;;;128.37;;
29280;SDS011;25048;49.590;11.026;2023-02-23T04:20:48;121.07;;;113.43;;
29280;SDS011;25048;49.590;11.026;2023-02-23T04:23:15;146.10;;;136.97;;
29280;SDS011;25048;49.590;11.026;2023-02-23T04:25:43;121.60;;;113.73;;
29280;SDS011;25048;49.590;11.026;2023-02-23T04:28:12;124.43;;;116.03;;
29280;SDS011;25048;49.590;11.026;2023-02-23T04:30:40;119.93;;;112.33;;
29280;SDS011;25048;49.590;11.026;2023-02-23T04:33:09;119.43;;;112.03;;
29280;SDS011;25048;49.590;11.026;2023-02-23T04:35:36;128.80;;;120.67;;
29280;SDS011;25048;49.590;11.026;2023-02-23T04:38:04;155.63;;;145.83;;
29280;SDS011;25048;49.590;11.026;2023-02-23T04:40:32;115.17;;;108.03;;
29280;SDS011;25048;49.590;11.026;2023-02-23T04:43:00;128.90;;;120.77;;
29280;SDS011;25048;49.590;11.026;2023-02-23T04:45:27;119.63;;;111.87;;
29280;SDS011;25048;49.590;11.026;2023-02-23T04:47:55;121.27;;;113.40;;
29280;SDS011;25048;49.590;11.026;2023-02-23T04:50:22;104.47;;;98.00;;
29280;SDS011;25048;49.590;11.026;2023-02-23T04:52:50;134.17;;;125.87;;
29280;SDS011;25048;49.590;11.026;2023-02-23T04:55:18;109.87;;;103.23;;
29280;SDS011;25048;49.590;11.026;2023-02-23T04:57:48;130.10;;;121.70;;
29280;SDS011;25048;49.590;11.026;2023-02-23T05:00:16;119.23;;;111.87;;
29280;SDS011;25048;49.590;11.026;2023-02-23T05:02:44;124.30;;;116.77;;
29280;SDS011;25048;49.590;11.026;2023-02-23T05:05:12;128.77;;;120.77;;
29280;SDS011;25048;49.590;11.026;2023-02-23T05:07:39;137.47;;;128.27;;
29280;SDS011;25048;49.590;11.026;2023-02-23T05:10:07;124.70;;;116.70;;
29280;SDS011;25048;49.590;11.026;2023-02-23T05:12:36;123.13;;;115.37;;
29280;SDS011;25048;49.590;11.026;2023-02-23T05:15:03;135.83;;;126.73;;
29280;SDS011;25048;49.590;11.026;2023-02-23T05:17:31;107.93;;;101.00;;
29280;SDS011;25048;49.590;11.026;2023-02-23T05:19:59;140.20;;;131.17;;
29280;SDS011;25048;49.590;11.026;2023-02-23T05:22:26;123.57;;;115.70;;
29280;SDS011;25048;49.590;11.026;2023-02-23T05:24:54;130.60;;;122.47;;
29280;SDS011;25048;49.590;11.026;2023-02-23T05:27:22;123.80;;;116.07;;
29280;SDS011;25048;49.590;11.026;2023-02-23T05:29:49;118.80;;;111.00;;
29280;SDS011;25048;49.590;11.026;2023-02-23T05:32:17;117.53;;;109.87;;
29280;SDS011;25048;49.590;11.026;2023-02-23T05:34:44;127.67;;;119.37;;
29280;SDS011;25048;49.590;11.026;2023-02-23T05:37:12;105.50;;;98.60;;
29280;SDS011;25048;49.590;11.026;2023-02-23T05:39:39;108.60;;;101.90;;
29280;SDS011;25048;49.590;11.026;2023-02-23T05:42:07;96.57;;;90.13;;
29280;SDS011;25048;49.590;11.026;2023-02-23T05:44:34;108.57;;;101.60;;
29280;SDS011;25048;49.590;11.026;2023-02-23T05:47:02;106.07;;;98.77;;
29280;SDS011;25048;49.590;11.026;2023-02-23T05:49:29;105.93;;;99.00;;
29280;SDS011;25048;49.590;11.026;2023-02-23T05:51:57;96.37;;;90.20;;
29280;SDS011;25048;49.590;11.026;2023-02-23T05:54:24;107.47;;;100.37;;
29280;SDS011;25048;49.590;11.026;2023-02-23T05:56:52;103.00;;;96.30;;
29280;SDS011;25048;49.590;11.026;2023-02-23T05:59:19;102.57;;;96.10;;
29280;SDS011;25048;49.590;11.026;2023-02-23T06:01:47;97.43;;;90.97;;
29280;SDS011;25048;49.590;11.026;2023-02-23T06:04:14;95.37;;;89.00;;
29280;SDS011;25048;49.590;11.026;2023-02-23T06:06:42;84.23;;;78.80;;
29280;SDS011;25048;49.590;11.026;2023-02-23T06:09:10;83.40;;;77.50;;
29280;SDS011;25048;49.590;11.026;2023-02-23T06:11:37;99.97;;;92.90;;
29280;SDS011;25048;49.590;11.026;2023-02-23T06:14:05;107.33;;;100.67;;
29280;SDS011;25048;49.590;11.026;2023-02-23T06:16:32;103.33;;;96.73;;
29280;SDS011;25048;49.590;11.026;2023-02-23T06:19:00;103.00;;;95.97;;
29280;SDS011;25048;49.590;11.026;2023-02-23T06:21:27;97.23;;;90.83;;
29280;SDS011;25048;49.590;11.026;2023-02-23T06:23:56;93.90;;;87.70;;
29280;SDS011;25048;49.590;11.026;2023-02-23T06:26:25;95.97;;;89.30;;
29280;SDS011;25048;49.590;11.026;2023-02-23T06:28:53;107.00;;;100.07;;
29280;SDS011;25048;49.590;11.026;2023-02-23T06:31:21;115.80;;;108.57;;
29280;SDS011;25048;49.590;11.026;2023-02-23T06:33:48;89.20;;;83.13;;
29280;SDS011;25048;49.590;11.026;2023-02-23T06:36:16;103.77;;;97.00;;
29280;SDS011;25048;49.590;11.026;2023-02-23T06:38:44;100.30;;;93.90;;
29280;SDS011;25048;49.590;11.026;2023-02-23T06:41:11;84.97;;;79.43;;
29280;SDS011;25048;49.590;11.026;2023-02-23T06:43:39;99.40;;;92.63;;
29280;SDS011;25048;49.590;11.026;2023-02-23T06:46:06;89.00;;;83.27;;
29280;SDS011;25048;49.590;11.026;2023-02-23T06:48:34;101.33;;;94.57;;
29280;SDS011;25048;49.590;11.026;2023-02-23T06:51:01;108.90;;;101.70;;
29280;SDS011;25048;49.590;11.026;2023-02-23T06:53:29;104.83;;;97.93;;
29280;SDS011;25048;49.590;11.026;2023-02-23T06:55:56;102.70;;;95.93;;
29280;SDS011;25048;49.590;11.026;2023-02-23T06:58:24;112.77;;;104.67;;
29280;SDS011;25048;49.590;11.026;2023-02-23T07:00:56;98.93;;;91.90;;
29280;SDS011;25048;49.590;11.026;2023-02-23T07:03:24;111.30;;;104.00;;
29280;SDS011;25048;49.590;11.026;2023-02-23T07:05:52;108.63;;;101.00;;
29280;SDS011;25048;49.590;11.026;2023-02-23T07:08:19;105.30;;;98.27;;
29280;SDS011;25048;49.590;11.026;2023-02-23T07:10:47;114.17;;;106.37;;
29280;SDS011;25048;49.590;11.026;2023-02-23T07:13:14;96.43;;;89.50;;
29280;SDS011;25048;49.590;11.026;2023-02-23T07:15:42;90.93;;;84.40;;
29280;SDS011;25048;49.590;11.026;2023-02-23T07:18:10;80.33;;;74.70;;
29280;SDS011;25048;49.590;11.026;2023-02-23T07:20:37;89.97;;;82.90;;
29280;SDS011;25048;49.590;11.026;2023-02-23T07:23:04;91.77;;;84.97;;
29280;SDS011;25048;49.590;11.026;2023-02-23T07:25:32;99.57;;;92.53;;
29280;SDS011;25048;49.590;11.026;2023-02-23T07:28:00;98.07;;;91.17;;
29280;SDS011;25048;49.590;11.026;2023-02-23T07:30:28;96.23;;;89.43;;
29280;SDS011;25048;49.590;11.026;2023-02-23T07:32:55;80.70;;;74.13;;
29280;SDS011;25048;49.590;11.026;2023-02-23T07:35:23;78.10;;;72.33;;
29280;SDS011;25048;49.590;11.026;2023-02-23T07:37:50;78.50;;;72.57;;
29280;SDS011;25048;49.590;11.026;2023-02-23T07:40:19;76.20;;;69.70;;
29280;SDS011;25048;49.590;11.026;2023-02-23T07:42:47;71.10;;;65.90;;
29280;SDS011;25048;49.590;11.026;2023-02-23T07:45:14;74.10;;;68.70;;
29280;SDS011;25048;49.590;11.026;2023-02-23T07:47:42;60.37;;;55.00;;
29280;SDS011;25048;49.590;11.026;2023-02-23T07:50:10;67.90;;;62.63;;
29280;SDS011;25048;49.590;11.026;2023-02-23T07:52:39;55.40;;;51.30;;
29280;SDS011;25048;49.590;11.026;2023-02-23T07:55:07;60.47;;;55.63;;
29280;SDS011;25048;49.590;11.026;2023-02-23T07:57:35;64.80;;;59.73;;
29280;SDS011;25048;49.590;11.026;2023-02-23T08:00:04;59.83;;;55.07;;
29280;SDS011;25048;49.590;11.026;2023-02-23T08:02:32;60.57;;;54.23;;
29280;SDS011;25048;49.590;11.026;2023-02-23T08:05:00;46.60;;;42.53;;
29280;SDS011;25048;49.590;11.026;2023-02-23T08:07:30;54.07;;;49.07;;
29280;SDS011;25048;49.590;11.026;2023-02-23T08:10:00;35.77;;;29.30;;
29280;SDS011;25048;49.590;11.026;2023-02-23T08:12:27;31.93;;;28.47;;
29280;SDS011;25048;49.590;11.026;2023-02-23T08:14:55;30.33;;;27.17;;
29280;SDS011;25048;49.590;11.026;2023-02-23T08:17:22;32.70;;;28.10;;
29280;SDS011;25048;49.590;11.026;2023-02-23T08:19:50;26.97;;;20.40;;
29280;SDS011;25048;49.590;11.026;2023-02-23T08:22:17;26.13;;;20.40;;
29280;SDS011;25048;49.590;11.026;2023-02-23T08:24:46;25.70;;;18.37;;
29280;SDS011;25048;49.590;11.026;2023-02-23T08:27:13;33.83;;;17.87;;
29280;SDS011;25048;49.590;11.026;2023-02-23T08:29:41;24.93;;;17.93;;
29280;SDS011;25048;49.590;11.026;2023-02-23T08:32:08;26.53;;;14.93;;
29280;SDS011;25048;49.590;11.026;2023-02-23T08:34:40;29.83;;;17.17;;
29280;SDS011;25048;49.590;11.026;2023-02-23T08:37:08;26.20;;;17.73;;
29280;SDS011;25048;49.590;11.026;2023-02-23T08:39:36;29.37;;;19.07;;
29280;SDS011;25048;49.590;11.026;2023-02-23T08:42:04;34.30;;;17.97;;
29280;SDS011;25048;49.590;11.026;2023-02-23T08:44:31;28.80;;;16.30;;
29280;SDS011;25048;49.590;11.026;2023-02-23T08:46:59;31.50;;;15.43;;
29280;SDS011;25048;49.590;11.026;2023-02-23T08:49:28;25.77;;;15.97;;
29280;SDS011;25048;49.590;11.026;2023-02-23T08:51:57;25.57;;;13.97;;
29280;SDS011;25048;49.590;11.026;2023-02-23T08:54:24;22.33;;;12.50;;
29280;SDS011;25048;49.590;11.026;2023-02-23T08:56:54;26.70;;;14.13;;
29280;SDS011;25048;49.590;11.026;2023-02-23T08:59:23;30.80;;;16.13;;
29280;SDS011;25048;49.590;11.026;2023-02-23T09:01:52;34.67;;;16.30;;
29280;SDS011;25048;49.590;11.026;2023-02-23T09:04:19;30.13;;;15.27;;
29280;SDS011;25048;49.590;11.026;2023-02-23T09:06:47;32.97;;;14.30;;
29280;SDS011;25048;49.590;11.026;2023-02-23T09:09:15;26.83;;;14.77;;
29280;SDS011;25048;49.590;11.026;2023-02-23T09:11:43;29.03;;;13.80;;
29280;SDS011;25048;49.590;11.026;2023-02-23T09:14:11;34.73;;;15.47;;
29280;SDS011;25048;49.590;11.026;2023-02-23T09:16:38;28.23;;;14.87;;
29280;SDS011;25048;49.590;11.026;2023-02-23T09:19:06;27.33;;;13.87;;
29280;SDS011;25048;49.590;11.026;2023-02-23T09:21:33;31.13;;;15.87;;
29280;SDS011;25048;49.590;11.026;2023-02-23T09:24:01;29.30;;;14.97;;
29280;SDS011;25048;49.590;11.026;2023-02-23T09:26:28;28.77;;;14.33;;
29280;SDS011;25048;49.590;11.026;2023-02-23T09:28:57;33.03;;;14.83;;
29280;SDS011;25048;49.590;11.026;2023-02-23T09:31:26;35.60;;;16.80;;
29280;SDS011;25048;49.590;11.026;2023-02-23T09:33:53;31.80;;;15.30;;
29280;SDS011;25048;49.590;11.026;2023-02-23T09:36:23;30.13;;;15.40;;
29280;SDS011;25048;49.590;11.026;2023-02-23T09:38:53;36.50;;;15.97;;
29280;SDS011;25048;49.590;11.026;2023-02-23T09:44:34;33.77;;;16.17;;
29280;SDS011;25048;49.590;11.026;2023-02-23T09:46:37;35.67;;;15.63;;
29280;SDS011;25048;49.590;11.026;2023-02-23T09:49:16;35.23;;;16.37;;
29280;SDS011;25048;49.590;11.026;2023-02-23T09:51:46;29.73;;;15.47;;
29280;SDS011;25048;49.590;11.026;2023-02-23T09:54:20;34.03;;;16.27;;
29280;SDS011;25048;49.590;11.026;2023-02-23T09:56:49;39.43;;;17.73;;
29280;SDS011;25048;49.590;11.026;2023-02-23T09:59:20;32.27;;;17.03;;
29280;SDS011;25048;49.590;11.026;2023-02-23T10:01:57;37.83;;;18.13;;
29280;SDS011;25048;49.590;11.026;2023-02-23T10:04:35;38.47;;;18.47;;
29280;SDS011;25048;49.590;11.026;2023-02-23T10:12:46;45.30;;;22.10;;
29280;SDS011;25048;49.590;11.026;2023-02-23T10:21:10;43.67;;;20.93;;
29280;SDS011;25048;49.590;11.026;2023-02-23T10:23:53;46.30;;;21.40;;
29280;SDS011;25048;49.590;11.026;2023-02-23T10:26:26;46.40;;;21.83;;
29280;SDS011;25048;49.590;11.026;2023-02-23T10:28:56;55.73;;;21.43;;
29280;SDS011;25048;49.590;11.026;2023-02-23T10:31:44;48.87;;;21.73;;
29280;SDS011;25048;49.590;11.026;2023-02-23T10:34:16;47.53;;;23.03;;
29280;SDS011;25048;49.590;11.026;2023-02-23T10:36:56;49.00;;;22.90;;
29280;SDS011;25048;49.590;11.026;2023-02-23T10:39:25;45.37;;;21.97;;
29280;SDS011;25048;49.590;11.026;2023-02-23T10:41:55;50.73;;;22.67;;
29280;SDS011;25048;49.590;11.026;2023-02-23T10:44:25;53.87;;;22.90;;
29280;SDS011;25048;49.590;11.026;2023-02-23T10:46:58;51.83;;;24.60;;
29280;SDS011;25048;49.590;11.026;2023-02-23T10:49:55;46.77;;;22.23;;
29280;SDS011;25048;49.590;11.026;2023-02-23T10:53:02;49.13;;;22.80;;
29280;SDS011;25048;49.590;11.026;2023-02-23T10:54:50;46.07;;;22.93;;
29280;SDS011;25048;49.590;11.026;2023-02-23T10:57:22;56.53;;;23.00;;
29280;SDS011;25048;49.590;11.026;2023-02-23T10:59:59;48.43;;;24.20;;
29280;SDS011;25048;49.590;11.026;2023-02-23T11:02:37;49.33;;;22.70;;
29280;SDS011;25048;49.590;11.026;2023-02-23T11:05:06;48.70;;;24.17;;
29280;SDS011;25048;49.590;11.026;2023-02-23T11:07:35;53.40;;;25.60;;
29280;SDS011;25048;49.590;11.026;2023-02-23T11:10:23;52.60;;;23.77;;
29280;SDS011;25048;49.590;11.026;2023-02-23T11:12:52;43.53;;;22.97;;
29280;SDS011;25048;49.590;11.026;2023-02-23T11:17:54;55.73;;;24.77;;
29280;SDS011;25048;49.590;11.026;2023-02-23T11:23:07;51.43;;;24.03;;
29280;SDS011;25048;49.590;11.026;2023-02-23T11:25:36;48.97;;;23.57;;
29280;SDS011;25048;49.590;11.026;2023-02-23T11:28:15;44.47;;;23.03;;
29280;SDS011;25048;49.590;11.026;2023-02-23T11:30:46;49.43;;;23.00;;
29280;SDS011;25048;49.590;11.026;2023-02-23T11:33:22;47.83;;;23.70;;
29280;SDS011;25048;49.590;11.026;2023-02-23T11:35:45;47.77;;;22.03;;
29280;SDS011;25048;49.590;11.026;2023-02-23T11:38:21;48.40;;;22.77;;
29280;SDS011;25048;49.590;11.026;2023-02-23T11:40:58;55.77;;;23.07;;
29280;SDS011;25048;49.590;11.026;2023-02-23T11:43:30;46.93;;;21.97;;
29280;SDS011;25048;49.590;11.026;2023-02-23T11:46:02;46.90;;;22.83;;
29280;SDS011;25048;49.590;11.026;2023-02-23T11:48:35;48.03;;;23.80;;
29280;SDS011;25048;49.590;11.026;2023-02-23T11:51:05;45.70;;;21.87;;
29280;SDS011;25048;49.590;11.026;2023-02-23T11:53:38;48.53;;;22.17;;
29280;SDS011;25048;49.590;11.026;2023-02-23T11:56:07;48.43;;;21.23;;
29280;SDS011;25048;49.590;11.026;2023-02-23T11:58:37;45.17;;;22.13;;
29280;SDS011;25048;49.590;11.026;2023-02-23T12:01:07;45.37;;;21.83;;
29280;SDS011;25048;49.590;11.026;2023-02-23T12:03:45;45.17;;;21.93;;
29280;SDS011;25048;49.590;11.026;2023-02-23T12:06:40;50.53;;;23.30;;
29280;SDS011;25048;49.590;11.026;2023-02-23T12:12:03;46.37;;;21.93;;
29280;SDS011;25048;49.590;11.026;2023-02-23T12:14:39;49.13;;;22.73;;
29280;SDS011;25048;49.590;11.026;2023-02-23T12:17:27;50.20;;;22.70;;
29280;SDS011;25048;49.590;11.026;2023-02-23T12:20:09;51.27;;;22.63;;
29280;SDS011;25048;49.590;11.026;2023-02-23T12:22:35;47.23;;;23.10;;
29280;SDS011;25048;49.590;11.026;2023-02-23T12:25:10;48.93;;;23.10;;
29280;SDS011;25048;49.590;11.026;2023-02-23T12:27:43;47.77;;;20.97;;
29280;SDS011;25048;49.590;11.026;2023-02-23T12:30:16;42.10;;;21.37;;
29280;SDS011;25048;49.590;11.026;2023-02-23T12:32:45;47.60;;;21.53;;
29280;SDS011;25048;49.590;11.026;2023-02-23T12:41:20;48.50;;;22.40;;
29280;SDS011;25048;49.590;11.026;2023-02-23T12:44:07;39.40;;;20.13;;
29280;SDS011;25048;49.590;11.026;2023-02-23T12:46:29;42.87;;;22.10;;
29280;SDS011;25048;49.590;11.026;2023-02-23T12:51:43;40.93;;;20.00;;
29280;SDS011;25048;49.590;11.026;2023-02-23T12:54:18;40.70;;;21.53;;
29280;SDS011;25048;49.590;11.026;2023-02-23T12:57:04;45.97;;;21.60;;
29280;SDS011;25048;49.590;11.026;2023-02-23T13:00:03;42.67;;;20.83;;
29280;SDS011;25048;49.590;11.026;2023-02-23T13:02:40;41.10;;;21.33;;
29280;SDS011;25048;49.590;11.026;2023-02-23T13:05:21;43.53;;;21.23;;
29280;SDS011;25048;49.590;11.026;2023-02-23T13:10:29;48.97;;;22.27;;
29280;SDS011;25048;49.590;11.026;2023-02-23T13:13:11;43.93;;;20.17;;
29280;SDS011;25048;49.590;11.026;2023-02-23T13:15:55;46.17;;;21.93;;
29280;SDS011;25048;49.590;11.026;2023-02-23T13:19:12;36.93;;;19.17;;
29280;SDS011;25048;49.590;11.026;2023-02-23T13:21:22;43.63;;;19.60;;
29280;SDS011;25048;49.590;11.026;2023-02-23T13:24:03;42.57;;;20.30;;
29280;SDS011;25048;49.590;11.026;2023-02-23T13:26:41;42.30;;;19.40;;
29280;SDS011;25048;49.590;11.026;2023-02-23T13:29:26;37.10;;;18.57;;
29280;SDS011;25048;49.590;11.026;2023-02-23T13:32:08;39.43;;;19.33;;
29280;SDS011;25048;49.590;11.026;2023-02-23T13:42:43;44.50;;;19.07;;
29280;SDS011;25048;49.590;11.026;2023-02-23T13:48:18;38.00;;;17.17;;
29280;SDS011;25048;49.590;11.026;2023-02-23T13:54:16;40.07;;;16.90;;
29280;SDS011;25048;49.590;11.026;2023-02-23T13:56:47;41.63;;;17.37;;
29280;SDS011;25048;49.590;11.026;2023-02-23T13:59:18;28.50;;;15.73;;
29280;SDS011;25048;49.590;11.026;2023-02-23T14:01:58;36.47;;;16.80;;
29280;SDS011;25048;49.590;11.026;2023-02-23T14:04:33;37.70;;;17.03;;
29280;SDS011;25048;49.590;11.026;2023-02-23T14:07:03;35.37;;;17.77;;
29280;SDS011;25048;49.590;11.026;2023-02-23T14:09:40;31.93;;;17.27;;
29280;SDS011;25048;49.590;11.026;2023-02-23T14:14:43;36.30;;;17.33;;
29280;SDS011;25048;49.590;11.026;2023-02-23T14:20:03;35.47;;;16.53;;
29280;SDS011;25048;49.590;11.026;2023-02-23T14:22:46;41.20;;;17.77;;
29280;SDS011;25048;49.590;11.026;2023-02-23T14:28:02;35.60;;;17.23;;
29280;SDS011;25048;49.590;11.026;2023-02-23T14:30:45;36.57;;;16.73;;
29280;SDS011;25048;49.590;11.026;2023-02-23T14:44:13;30.03;;;15.80;;
29280;SDS011;25048;49.590;11.026;2023-02-23T14:47:28;33.20;;;16.30;;
29280;SDS011;25048;49.590;11.026;2023-02-23T14:49:30;36.20;;;15.83;;
29280;SDS011;25048;49.590;11.026;2023-02-23T14:52:04;27.67;;;14.00;;
29280;SDS011;25048;49.590;11.026;2023-02-23T14:54:44;33.90;;;16.17;;
29280;SDS011;25048;49.590;11.026;2023-02-23T14:57:20;32.97;;;15.17;;
29280;SDS011;25048;49.590;11.026;2023-02-23T14:59:52;29.23;;;15.67;;
29280;SDS011;25048;49.590;11.026;2023-02-23T15:02:20;30.60;;;14.80;;
29280;SDS011;25048;49.590;11.026;2023-02-23T15:04:49;26.07;;;13.20;;
29280;SDS011;25048;49.590;11.026;2023-02-23T15:09:54;25.43;;;13.50;;
29280;SDS011;25048;49.590;11.026;2023-02-23T15:12:33;25.87;;;12.43;;
29280;SDS011;25048;49.590;11.026;2023-02-23T15:15:03;26.37;;;12.23;;
29280;SDS011;25048;49.590;11.026;2023-02-23T15:17:34;25.73;;;12.77;;
29280;SDS011;25048;49.590;11.026;2023-02-23T15:20:05;24.27;;;12.33;;
29280;SDS011;25048;49.590;11.026;2023-02-23T15:22:36;21.10;;;11.63;;
29280;SDS011;25048;49.590;11.026;2023-02-23T15:25:14;26.33;;;13.73;;
29280;SDS011;25048;49.590;11.026;2023-02-23T15:27:43;24.77;;;12.70;;
29280;SDS011;25048;49.590;11.026;2023-02-23T15:30:18;22.20;;;12.17;;
29280;SDS011;25048;49.590;11.026;2023-02-23T15:33:02;26.73;;;13.03;;
29280;SDS011;25048;49.590;11.026;2023-02-23T15:35:34;30.47;;;13.53;;
29280;SDS011;25048;49.590;11.026;2023-02-23T15:38:03;26.67;;;13.27;;
29280;SDS011;25048;49.590;11.026;2023-02-23T15:40:34;25.57;;;12.77;;
29280;SDS011;25048;49.590;11.026;2023-02-23T15:43:01;24.47;;;13.80;;
29280;SDS011;25048;49.590;11.026;2023-02-23T15:45:36;32.07;;;14.20;;
29280;SDS011;25048;49.590;11.026;2023-02-23T15:48:12;30.43;;;13.73;;
29280;SDS011;25048;49.590;11.026;2023-02-23T15:50:46;30.30;;;14.13;;
29280;SDS011;25048;49.590;11.026;2023-02-23T15:56:02;30.80;;;14.13;;
29280;SDS011;25048;49.590;11.026;2023-02-23T15:58:36;31.33;;;14.00;;
29280;SDS011;25048;49.590;11.026;2023-02-23T16:01:07;30.97;;;13.93;;
29280;SDS011;25048;49.590;11.026;2023-02-23T16:03:36;28.20;;;13.90;;
29280;SDS011;25048;49.590;11.026;2023-02-23T16:06:25;27.03;;;14.10;;
29280;SDS011;25048;49.590;11.026;2023-02-23T16:08:56;29.47;;;14.10;;
29280;SDS011;25048;49.590;11.026;2023-02-23T16:11:29;28.70;;;12.73;;
29280;SDS011;25048;49.590;11.026;2023-02-23T16:14:03;28.57;;;13.60;;